createdAt,value
2023-03-02T00:02:02.367Z,100.00
2023-03-02T00:04:40.340Z,100.00
2023-03-02T00:07:17.489Z,100.00
2023-03-02T00:09:45.289Z,100.00
2023-03-02T00:12:17.049Z,100.00
2023-03-02T00:14:45.616Z,100.00
2023-03-02T00:17:18.361Z,100.00
2023-03-02T00:19:45.583Z,100.00
2023-03-02T00:22:21.358Z,100.00
2023-03-02T00:24:51.050Z,100.00
2023-03-02T00:27:21.809Z,100.00
2023-03-02T00:29:49.595Z,100.00
2023-03-02T00:32:21.543Z,100.00
2023-03-02T00:34:48.249Z,100.00
2023-03-02T00:37:17.394Z,100.00
2023-03-02T00:39:46.548Z,100.00
2023-03-02T00:42:20.719Z,100.00
2023-03-02T00:44:48.705Z,100.00
2023-03-02T00:47:17.461Z,100.00
2023-03-02T00:49:50.309Z,100.00
2023-03-02T00:52:17.739Z,100.00
2023-03-02T00:54:44.744Z,100.00
2023-03-02T00:57:16.380Z,100.00
2023-03-02T00:59:47.071Z,100.00
2023-03-02T01:02:31.882Z,100.00
2023-03-02T01:04:58.703Z,100.00
2023-03-02T01:07:28.276Z,100.00
2023-03-02T01:09:56.325Z,100.00
2023-03-02T01:12:30.129Z,100.00
2023-03-02T01:14:57.329Z,100.00
2023-03-02T01:17:25.272Z,100.00
2023-03-02T01:19:52.573Z,100.00
2023-03-02T01:22:25.847Z,100.00
2023-03-02T01:24:55.113Z,100.00
2023-03-02T01:27:22.257Z,100.00
2023-03-02T01:29:51.985Z,100.00
2023-03-02T01:32:18.778Z,100.00
2023-03-02T01:34:48.512Z,100.00
2023-03-02T01:37:17.745Z,100.00
2023-03-02T01:39:55.072Z,100.00
2023-03-02T01:42:21.741Z,100.00
2023-03-02T01:44:52.396Z,100.00
2023-03-02T01:47:29.296Z,100.00
2023-03-02T01:50:23.106Z,100.00
2023-03-02T01:52:54.924Z,100.00
2023-03-02T01:55:26.573Z,100.00
2023-03-02T01:57:54.931Z,100.00
2023-03-02T02:00:29.280Z,100.00
2023-03-02T02:03:09.035Z,100.00
2023-03-02T02:05:40.707Z,100.00
2023-03-02T02:08:07.867Z,100.00
2023-03-02T02:10:38.321Z,100.00
2023-03-02T02:13:09.055Z,100.00
2023-03-02T02:15:38.982Z,100.00
2023-03-02T02:18:18.436Z,100.00
2023-03-02T02:20:48.883Z,100.00
2023-03-02T02:23:31.197Z,100.00
2023-03-02T02:26:08.877Z,100.00
2023-03-02T02:29:16.148Z,100.00
2023-03-02T02:32:15.909Z,100.00
2023-03-02T02:34:48.196Z,100.00
2023-03-02T02:37:22.270Z,100.00
2023-03-02T02:39:52.772Z,100.00
2023-03-02T02:42:32.278Z,100.00
2023-03-02T02:45:04.513Z,100.00
2023-03-02T02:47:38.311Z,100.00
2023-03-02T02:50:18.556Z,100.00
2023-03-02T02:52:48.634Z,100.00
2023-03-02T02:55:22.201Z,100.00
2023-03-02T02:57:53.580Z,100.00
2023-03-02T03:00:22.798Z,100.00
2023-03-02T03:02:54.601Z,100.00
2023-03-02T03:05:23.940Z,100.00
2023-03-02T03:07:55.877Z,100.00
2023-03-02T03:10:31.962Z,100.00
2023-03-02T03:13:04.014Z,100.00
2023-03-02T03:15:32.444Z,100.00
2023-03-02T03:17:59.467Z,100.00
2023-03-02T03:20:28.502Z,100.00
2023-03-02T03:22:55.474Z,100.00
2023-03-02T03:28:06.710Z,100.00
2023-03-02T03:30:34.509Z,100.00
2023-03-02T03:33:01.530Z,100.00
2023-03-02T03:35:28.585Z,100.00
2023-03-02T03:38:03.772Z,100.00
2023-03-02T03:43:16.384Z,100.00
2023-03-02T03:45:51.662Z,100.00
2023-03-02T03:48:19.538Z,100.00
2023-03-02T03:50:53.789Z,100.00
2023-03-02T03:53:27.687Z,100.00
2023-03-02T03:55:59.662Z,100.00
2023-03-02T03:58:28.930Z,100.00
2023-03-02T04:00:57.788Z,100.00
2023-03-02T04:03:27.803Z,100.00
2023-03-02T04:05:59.717Z,100.00
2023-03-02T04:08:26.453Z,100.00
2023-03-02T04:10:53.738Z,100.00
2023-03-02T04:13:21.986Z,100.00
2023-03-02T04:15:55.492Z,100.00
2023-03-02T04:18:22.639Z,100.00
2023-03-02T04:20:49.331Z,100.00
2023-03-02T04:23:18.469Z,100.00
2023-03-02T04:25:45.976Z,100.00
2023-03-02T04:28:22.377Z,100.00
2023-03-02T04:31:09.567Z,100.00
2023-03-02T04:33:36.671Z,100.00
2023-03-02T04:36:08.585Z,100.00
2023-03-02T04:38:48.045Z,100.00
2023-03-02T04:41:22.130Z,100.00
2023-03-02T04:43:49.303Z,100.00
2023-03-02T04:46:20.606Z,100.00
2023-03-02T04:48:49.575Z,100.00
2023-03-02T04:51:24.196Z,100.00
2023-03-02T04:53:56.171Z,100.00
2023-03-02T04:56:22.941Z,100.00
2023-03-02T04:58:49.964Z,100.00
2023-03-02T05:01:17.800Z,100.00
2023-03-02T05:03:48.201Z,100.00
2023-03-02T05:06:14.957Z,100.00
2023-03-02T05:08:44.741Z,100.00
2023-03-02T05:11:22.160Z,100.00
2023-03-02T05:14:19.966Z,100.00
2023-03-02T05:16:49.882Z,100.00
2023-03-02T05:19:19.057Z,100.00
2023-03-02T05:21:45.975Z,100.00
2023-03-02T05:24:15.072Z,100.00
2023-03-02T05:26:44.356Z,100.00
2023-03-02T05:29:12.342Z,100.00
2023-03-02T05:31:50.015Z,100.00
2023-03-02T05:34:20.060Z,100.00
2023-03-02T05:36:46.803Z,100.00
2023-03-02T05:39:13.782Z,100.00
2023-03-02T05:41:50.842Z,100.00
2023-03-02T05:44:20.239Z,100.00
2023-03-02T05:46:46.909Z,100.00
2023-03-02T05:49:16.371Z,100.00
2023-03-02T05:51:46.333Z,100.00
2023-03-02T05:54:20.894Z,100.00
2023-03-02T05:56:50.273Z,100.00
2023-03-02T05:59:26.341Z,100.00
2023-03-02T06:01:59.541Z,100.00
2023-03-02T06:04:26.435Z,100.00
2023-03-02T06:06:55.058Z,100.00
2023-03-02T06:09:24.758Z,100.00
2023-03-02T06:11:54.181Z,100.00
2023-03-02T06:14:24.194Z,100.00
2023-03-02T06:16:51.251Z,100.00
2023-03-02T06:19:21.901Z,100.00
2023-03-02T06:21:52.431Z,100.00
2023-03-02T06:24:19.444Z,100.00
2023-03-02T06:26:49.629Z,100.00
2023-03-02T06:29:19.084Z,100.00
2023-03-02T06:31:48.349Z,100.00
2023-03-02T06:34:16.049Z,100.00
2023-03-02T06:36:47.762Z,100.00
2023-03-02T06:39:19.824Z,100.00
2023-03-02T06:41:46.953Z,100.00
2023-03-02T06:44:14.279Z,100.00
2023-03-02T06:46:42.200Z,100.00
2023-03-02T06:49:13.922Z,100.00
2023-03-02T06:51:40.894Z,100.00
2023-03-02T06:54:08.323Z,100.00
2023-03-02T06:56:35.396Z,100.00
2023-03-02T06:59:02.176Z,100.00
2023-03-02T07:01:36.384Z,100.00
2023-03-02T07:04:03.848Z,100.00
2023-03-02T07:06:33.073Z,100.00
2023-03-02T07:09:02.791Z,100.00
2023-03-02T07:11:29.426Z,100.00
2023-03-02T07:13:55.999Z,100.00
2023-03-02T07:16:22.658Z,100.00
2023-03-02T07:18:52.366Z,100.00
2023-03-02T07:21:18.995Z,100.00
2023-03-02T07:23:46.913Z,100.00
2023-03-02T07:26:15.919Z,100.00
2023-03-02T07:28:44.462Z,100.00
2023-03-02T07:31:11.914Z,100.00
2023-03-02T07:33:39.472Z,100.00
2023-03-02T07:36:14.674Z,100.00
2023-03-02T07:38:41.460Z,100.00
2023-03-02T07:41:14.464Z,100.00
2023-03-02T07:43:43.885Z,100.00
2023-03-02T07:49:02.998Z,100.00
2023-03-02T07:51:35.405Z,100.00
2023-03-02T07:54:04.792Z,100.00
2023-03-02T07:56:33.727Z,100.00
2023-03-02T07:59:02.622Z,100.00
2023-03-02T08:01:32.122Z,100.00
2023-03-02T08:03:58.931Z,100.00
2023-03-02T08:06:27.965Z,100.00
2023-03-02T08:08:54.976Z,100.00
2023-03-02T08:11:27.665Z,100.00
2023-03-02T08:14:01.722Z,100.00
2023-03-02T08:16:28.683Z,98.32
2023-03-02T08:18:57.977Z,98.56
2023-03-02T08:21:26.933Z,95.73
2023-03-02T08:23:53.582Z,96.34
2023-03-02T08:26:20.748Z,96.09
2023-03-02T08:28:54.071Z,96.74
2023-03-02T08:31:24.095Z,96.78
2023-03-02T08:33:50.885Z,96.50
2023-03-02T08:36:18.879Z,96.33
2023-03-02T08:38:49.279Z,95.64
2023-03-02T08:41:19.543Z,95.00
2023-03-02T08:43:46.886Z,91.63
2023-03-02T08:46:15.128Z,91.01
2023-03-02T08:48:44.010Z,90.47
2023-03-02T08:51:16.949Z,90.81
2023-03-02T08:53:45.550Z,90.30
2023-03-02T08:56:20.049Z,90.15
2023-03-02T08:58:50.970Z,89.88
2023-03-02T09:01:27.384Z,89.87
2023-03-02T09:03:56.840Z,87.94
2023-03-02T09:06:28.774Z,87.53
2023-03-02T09:08:59.142Z,88.05
2023-03-02T09:11:26.603Z,88.33
2023-03-02T09:13:54.633Z,87.94
2023-03-02T09:16:26.655Z,88.63
2023-03-02T09:18:56.674Z,89.21
2023-03-02T09:21:23.965Z,88.29
2023-03-02T09:24:02.604Z,88.16
2023-03-02T09:26:30.370Z,87.89
2023-03-02T09:28:57.180Z,88.09
2023-03-02T09:31:24.212Z,86.77
2023-03-02T09:33:50.921Z,86.68
2023-03-02T09:36:24.409Z,86.41
2023-03-02T09:38:51.443Z,86.27
2023-03-02T09:41:21.047Z,85.84
2023-03-02T09:44:05.092Z,86.31
2023-03-02T09:46:53.641Z,86.15
2023-03-02T09:49:51.548Z,85.10
2023-03-02T09:52:30.521Z,83.96
2023-03-02T09:55:01.182Z,84.86
2023-03-02T09:57:34.794Z,84.71
2023-03-02T10:00:19.573Z,84.49
2023-03-02T10:02:54.520Z,84.25
2023-03-02T10:05:36.434Z,84.27
2023-03-02T10:08:03.098Z,83.79
2023-03-02T10:10:44.457Z,83.47
2023-03-02T10:13:15.766Z,82.74
2023-03-02T10:16:14.983Z,82.80
2023-03-02T10:19:06.803Z,84.16
2023-03-02T10:21:40.893Z,83.26
2023-03-02T10:24:32.944Z,83.29
2023-03-02T10:27:17.718Z,83.47
2023-03-02T10:30:06.512Z,83.81
2023-03-02T10:32:44.108Z,83.36
2023-03-02T10:35:15.117Z,82.41
2023-03-02T10:37:43.988Z,82.16
2023-03-02T10:40:26.584Z,81.63
2023-03-02T10:43:03.916Z,81.17
2023-03-02T10:45:35.052Z,80.67
2023-03-02T10:48:06.433Z,80.45
2023-03-02T10:50:33.473Z,79.13
2023-03-02T10:53:10.103Z,79.44
2023-03-02T10:55:45.148Z,79.07
2023-03-02T10:58:35.898Z,77.66
2023-03-02T11:01:07.293Z,77.97
2023-03-02T11:03:34.096Z,77.76
2023-03-02T11:06:18.824Z,77.49
2023-03-02T11:08:57.440Z,76.81
2023-03-02T11:11:27.091Z,77.00
2023-03-02T11:13:56.408Z,75.69
2023-03-02T11:16:31.202Z,74.86
2023-03-02T11:19:18.839Z,74.75
2023-03-02T11:22:05.498Z,73.34
2023-03-02T11:24:51.136Z,73.93
2023-03-02T11:27:39.019Z,72.98
2023-03-02T11:30:27.083Z,72.57
2023-03-02T11:33:17.181Z,71.75
2023-03-02T11:35:55.846Z,71.73
2023-03-02T11:38:41.694Z,70.97
2023-03-02T11:41:33.072Z,68.96
2023-03-02T11:44:10.922Z,68.42
2023-03-02T11:46:42.006Z,67.74
2023-03-02T11:49:16.644Z,66.20
2023-03-02T11:51:58.488Z,64.92
2023-03-02T11:54:44.101Z,65.26
2023-03-02T11:57:24.052Z,65.25
2023-03-02T11:59:53.877Z,64.61
2023-03-02T12:02:23.426Z,63.90
2023-03-02T12:05:01.160Z,63.18
2023-03-02T12:07:28.069Z,62.18
2023-03-02T12:10:26.186Z,62.10
2023-03-02T12:13:26.434Z,62.48
2023-03-02T12:15:58.855Z,62.96
2023-03-02T12:18:27.771Z,62.86
2023-03-02T12:21:06.756Z,60.88
2023-03-02T12:23:47.504Z,60.98
2023-03-02T12:26:23.068Z,59.77
2023-03-02T12:29:05.043Z,60.36
2023-03-02T12:31:50.306Z,60.58
2023-03-02T12:34:35.897Z,60.34
2023-03-02T12:37:17.949Z,59.88
2023-03-02T12:40:16.883Z,59.35
2023-03-02T12:43:22.469Z,58.42
2023-03-02T12:46:23.025Z,57.82
2023-03-02T12:49:25.029Z,58.72
2023-03-02T12:52:02.741Z,57.79
2023-03-02T12:54:36.857Z,57.19
2023-03-02T12:57:16.964Z,57.24
2023-03-02T12:59:50.803Z,56.08
2023-03-02T13:02:20.430Z,56.06
2023-03-02T13:04:58.142Z,56.33
2023-03-02T13:07:50.055Z,56.63
2023-03-02T13:10:31.093Z,57.32
2023-03-02T13:12:59.589Z,57.04
2023-03-02T13:15:27.603Z,56.43
2023-03-02T13:18:00.475Z,56.82
2023-03-02T13:20:31.210Z,56.54
2023-03-02T13:23:03.171Z,55.23
2023-03-02T13:25:31.258Z,55.08
2023-03-02T13:28:10.086Z,54.85
2023-03-02T13:30:47.822Z,54.60
2023-03-02T13:33:21.434Z,53.30
2023-03-02T13:35:55.570Z,52.85
2023-03-02T13:38:24.151Z,53.00
2023-03-02T13:40:53.261Z,51.71
2023-03-02T13:43:26.298Z,51.98
2023-03-02T13:45:59.855Z,51.47
2023-03-02T13:48:29.695Z,52.87
2023-03-02T13:51:03.497Z,52.73
2023-03-02T13:53:34.302Z,53.42
2023-03-02T13:56:04.835Z,53.62
2023-03-02T13:58:46.098Z,53.70
2023-03-02T14:01:15.987Z,54.06
2023-03-02T14:03:45.619Z,54.03
2023-03-02T14:06:18.479Z,53.65
2023-03-02T14:08:46.716Z,52.82
2023-03-02T14:11:17.292Z,52.13
2023-03-02T14:13:47.741Z,52.69
2023-03-02T14:16:17.493Z,53.28
2023-03-02T14:18:57.453Z,52.59
2023-03-02T14:21:37.508Z,52.80
2023-03-02T14:24:07.865Z,52.40
2023-03-02T14:26:37.505Z,52.44
2023-03-02T14:29:10.625Z,53.19
2023-03-02T14:31:40.288Z,53.10
2023-03-02T14:34:12.099Z,53.36
2023-03-02T14:36:39.942Z,52.29
2023-03-02T14:39:20.092Z,51.74
2023-03-02T14:41:54.843Z,51.18
2023-03-02T14:44:26.065Z,51.57
2023-03-02T14:46:53.129Z,51.53
2023-03-02T14:49:22.624Z,50.65
2023-03-02T14:52:06.683Z,50.14
2023-03-02T14:54:45.102Z,49.99
2023-03-02T14:57:27.760Z,49.72
2023-03-02T14:59:56.183Z,50.04
2023-03-02T15:02:27.153Z,50.41
2023-03-02T15:04:57.130Z,49.67
2023-03-02T15:07:27.812Z,49.22
2023-03-02T15:09:56.240Z,48.84
2023-03-02T15:12:32.137Z,49.17
2023-03-02T15:14:59.382Z,49.42
2023-03-02T15:17:26.114Z,49.33
2023-03-02T15:19:55.267Z,48.44
2023-03-02T15:22:22.313Z,47.48
2023-03-02T15:24:49.262Z,46.67
2023-03-02T15:27:15.960Z,46.70
2023-03-02T15:29:48.108Z,46.51
2023-03-02T15:32:15.112Z,46.17
2023-03-02T15:34:44.008Z,45.25
2023-03-02T15:37:11.853Z,44.41
2023-03-02T15:39:40.717Z,43.08
2023-03-02T15:42:07.810Z,42.92
2023-03-02T15:44:34.485Z,42.60
2023-03-02T15:47:01.331Z,42.16
2023-03-02T15:49:32.070Z,42.48
2023-03-02T15:51:59.095Z,42.02
2023-03-02T15:54:26.931Z,42.66
2023-03-02T15:56:54.949Z,43.60
2023-03-02T15:59:23.962Z,43.36
2023-03-02T16:01:52.242Z,44.03
2023-03-02T16:04:22.108Z,44.34
2023-03-02T16:06:50.648Z,44.85
2023-03-02T16:09:31.128Z,45.37
2023-03-02T16:11:59.481Z,45.72
2023-03-02T16:14:29.122Z,46.41
2023-03-02T16:16:55.940Z,46.58
2023-03-02T16:19:28.247Z,46.93
2023-03-02T16:21:57.547Z,47.32
2023-03-02T16:24:24.763Z,47.63
2023-03-02T16:26:54.882Z,47.97
2023-03-02T16:29:25.082Z,48.44
2023-03-02T16:31:53.706Z,48.98
2023-03-02T16:34:23.008Z,49.32
2023-03-02T16:36:51.685Z,49.72
2023-03-02T16:39:26.705Z,50.56
2023-03-02T16:41:53.832Z,51.20
2023-03-02T16:44:23.139Z,51.84
2023-03-02T16:46:57.831Z,52.22
2023-03-02T16:49:33.687Z,52.94
2023-03-02T16:52:01.527Z,53.81
2023-03-02T16:54:28.187Z,53.61
2023-03-02T16:56:54.912Z,53.61
2023-03-02T16:59:24.491Z,54.51
2023-03-02T17:01:51.326Z,55.34
2023-03-02T17:04:18.729Z,55.85
2023-03-02T17:06:59.903Z,56.59
2023-03-02T17:09:28.104Z,57.07
2023-03-02T17:11:54.847Z,57.42
2023-03-02T17:14:21.599Z,57.90
2023-03-02T17:16:51.701Z,59.12
2023-03-02T17:19:18.386Z,59.16
2023-03-02T17:21:47.927Z,59.89
2023-03-02T17:24:16.762Z,60.11
2023-03-02T17:26:44.006Z,61.48
2023-03-02T17:29:10.926Z,61.88
2023-03-02T17:31:38.136Z,63.01
2023-03-02T17:36:55.118Z,63.99
2023-03-02T17:39:23.058Z,63.57
2023-03-02T17:41:51.276Z,64.22
2023-03-02T17:44:19.408Z,64.71
2023-03-02T17:46:46.316Z,64.78
2023-03-02T17:49:14.513Z,65.27
2023-03-02T17:51:41.168Z,64.84
2023-03-02T17:54:14.958Z,65.29
2023-03-02T17:56:41.768Z,65.26
2023-03-02T17:59:08.430Z,65.24
2023-03-02T18:01:40.673Z,65.29
2023-03-02T18:04:09.344Z,65.74
2023-03-02T18:06:39.084Z,66.17
2023-03-02T18:09:08.617Z,67.10
2023-03-02T18:11:35.464Z,67.67
2023-03-02T18:14:04.149Z,68.40
2023-03-02T18:16:31.015Z,68.68
2023-03-02T18:18:57.799Z,69.04
2023-03-02T18:21:24.458Z,68.76
2023-03-02T18:23:55.096Z,69.51
2023-03-02T18:26:23.161Z,69.88
2023-03-02T18:28:51.123Z,69.75
2023-03-02T18:31:19.621Z,70.57
2023-03-02T18:33:47.241Z,70.33
2023-03-02T18:36:16.260Z,70.43
2023-03-02T18:38:43.121Z,71.07
2023-03-02T18:41:12.885Z,71.97
2023-03-02T18:43:41.048Z,72.30
2023-03-02T18:46:10.495Z,72.88
2023-03-02T18:48:44.814Z,73.01
2023-03-02T18:51:11.519Z,72.90
2023-03-02T18:53:39.460Z,73.43
2023-03-02T18:56:09.335Z,74.29
2023-03-02T18:58:36.277Z,75.36
2023-03-02T19:03:49.484Z,76.95
2023-03-02T19:06:20.537Z,77.80
2023-03-02T19:08:48.221Z,79.74
2023-03-02T19:11:17.998Z,80.44
2023-03-02T19:13:50.060Z,80.73
2023-03-02T19:16:19.293Z,81.00
2023-03-02T19:18:51.133Z,81.68
2023-03-02T19:21:20.357Z,82.07
2023-03-02T19:23:49.086Z,82.53
2023-03-02T19:26:21.942Z,82.61
2023-03-02T19:28:49.131Z,82.85
2023-03-02T19:31:16.017Z,83.50
2023-03-02T19:33:45.255Z,83.51
2023-03-02T19:36:20.037Z,83.52
2023-03-02T19:38:50.780Z,84.47
2023-03-02T19:41:21.134Z,85.28
2023-03-02T19:43:48.357Z,85.58
2023-03-02T19:46:16.109Z,86.15
2023-03-02T19:48:43.452Z,86.62
2023-03-02T19:51:13.675Z,87.08
2023-03-02T19:53:41.172Z,87.24
2023-03-02T19:56:13.162Z,87.19
2023-03-02T19:58:50.031Z,87.59
2023-03-02T20:01:27.141Z,87.39
2023-03-02T20:03:55.885Z,87.03
2023-03-02T20:06:27.139Z,87.49
2023-03-02T20:08:56.754Z,88.33
2023-03-02T20:11:25.157Z,88.35
2023-03-02T20:13:52.777Z,88.66
2023-03-02T20:16:22.901Z,89.12
2023-03-02T20:18:53.191Z,89.04
2023-03-02T20:21:19.931Z,89.64
2023-03-02T20:23:49.977Z,89.72
2023-03-02T20:26:21.309Z,90.16
2023-03-02T20:28:50.810Z,90.20
2023-03-02T20:31:17.810Z,89.83
2023-03-02T20:33:52.850Z,89.67
2023-03-02T20:36:30.344Z,90.25
2023-03-02T20:39:14.088Z,90.37
2023-03-02T20:41:41.192Z,90.29
2023-03-02T20:44:14.474Z,90.82
2023-03-02T20:46:46.129Z,91.11
2023-03-02T20:49:15.423Z,91.07
2023-03-02T20:51:49.291Z,91.58
2023-03-02T20:54:18.133Z,92.49
2023-03-02T20:56:47.071Z,92.84
2023-03-02T20:59:14.291Z,92.56
2023-03-02T21:01:49.996Z,93.11
2023-03-02T21:04:23.375Z,93.01
2023-03-02T21:06:53.077Z,93.38
2023-03-02T21:09:23.066Z,94.31
2023-03-02T21:11:50.728Z,95.68
2023-03-02T21:14:17.535Z,95.35
2023-03-02T21:16:46.457Z,95.34
2023-03-02T21:19:16.497Z,95.29
2023-03-02T21:21:46.248Z,94.52
2023-03-02T21:24:21.190Z,94.81
2023-03-02T21:26:53.070Z,95.35
2023-03-02T21:29:21.439Z,95.37
2023-03-02T21:31:50.132Z,95.01
2023-03-02T21:34:24.887Z,96.01
2023-03-02T21:36:53.748Z,96.51
2023-03-02T21:39:25.885Z,96.65
2023-03-02T21:41:54.503Z,96.37
2023-03-02T21:44:21.585Z,96.23
2023-03-02T21:46:48.431Z,98.27
2023-03-02T21:49:17.701Z,97.94
2023-03-02T21:51:53.344Z,97.77
2023-03-02T21:54:20.208Z,97.96
2023-03-02T21:56:49.508Z,98.13
2023-03-02T21:59:16.231Z,98.80
2023-03-02T22:01:53.240Z,98.35
2023-03-02T22:04:21.523Z,99.00
2023-03-02T22:06:50.709Z,99.12
2023-03-02T22:09:17.737Z,98.82
2023-03-02T22:11:44.861Z,99.57
2023-03-02T22:14:15.694Z,99.44
2023-03-02T22:16:47.899Z,100.00
2023-03-02T22:19:26.986Z,100.00
2023-03-02T22:21:58.654Z,100.00
2023-03-02T22:24:30.358Z,100.00
2023-03-02T22:27:08.112Z,100.00
2023-03-02T22:29:54.259Z,100.00
2023-03-02T22:32:35.642Z,100.00
2023-03-02T22:35:13.113Z,100.00
2023-03-02T22:37:40.481Z,100.00
2023-03-02T22:40:19.151Z,100.00
2023-03-02T22:42:45.867Z,100.00
2023-03-02T22:45:18.972Z,100.00
2023-03-02T22:47:51.317Z,100.00
2023-03-02T22:50:30.057Z,100.00
2023-03-02T22:53:00.601Z,100.00
2023-03-02T22:55:37.739Z,100.00
2023-03-02T22:58:36.625Z,100.00
2023-03-02T23:01:30.538Z,100.00
2023-03-02T23:04:09.769Z,100.00
2023-03-02T23:06:45.332Z,100.00
2023-03-02T23:09:20.541Z,100.00
2023-03-02T23:11:48.164Z,100.00
2023-03-02T23:14:27.432Z,100.00
2023-03-02T23:17:01.849Z,100.00
2023-03-02T23:19:31.941Z,100.00
2023-03-02T23:22:03.708Z,100.00
2023-03-02T23:24:30.738Z,100.00
2023-03-02T23:27:17.568Z,100.00
2023-03-02T23:29:48.357Z,100.00
2023-03-02T23:32:16.663Z,100.00
2023-03-02T23:34:45.525Z,100.00
2023-03-02T23:37:14.556Z,100.00
2023-03-02T23:39:46.228Z,100.00
2023-03-02T23:42:19.589Z,100.00
2023-03-02T23:44:50.816Z,100.00
2023-03-02T23:47:19.821Z,100.00
2023-03-02T23:49:49.456Z,100.00
2023-03-02T23:52:21.005Z,100.00
2023-03-02T23:54:53.920Z,100.00
2023-03-02T23:57:21.631Z,100.00
2023-03-02T23:59:55.549Z,100.00
